Time;durP1;ratioP1;P1;durP2;ratioP2;P2;SDS_P1;SDS_P2;PMS_P1;PMS_P2;Temp;Humidity;BMP_temperature;BMP_pressure;BME280_temperature;BME280_humidity;BME280_pressure;Samples;Min_cycle;Max_cycle;Signal;HPM_P1;HPM_P2
2021/01/25 00:01:55;;;;;;;9.82;5.57;;;256.60;1638.40;;;;;;4918358;29;20039;-74
2021/01/25 00:04:20;;;;;;;9.05;5.95;;;256.40;1664.00;;;;;;4918111;29;20024;-72
2021/01/25 00:06:46;;;;;;;9.52;5.43;;;256.10;1689.60;;;;;;4917946;29;20103;-70
2021/01/25 00:09:12;;;;;;;7.65;4.60;;;231.30;1689.60;;;;;;4918106;29;20031;-73
2021/01/25 00:11:37;;;;;;;9.95;5.13;;;230.70;1740.80;;;;;;4918099;29;20543;-74
2021/01/25 00:14:03;;;;;;;10.10;4.18;;;230.50;1766.40;;;;;;4916721;29;20072;-70
2021/01/25 00:16:29;;;;;;;6.60;3.40;;;205.60;1792.00;;;;;;4918132;29;20024;-69
2021/01/25 00:18:54;;;;;;;8.48;4.72;;;205.10;1792.00;;;;;;4918053;29;20072;-73
2021/01/25 00:21:20;;;;;;;6.70;4.25;;;205.00;1817.60;;;;;;4917729;29;20032;-70
2021/01/25 00:23:46;;;;;;;6.18;3.75;;;204.90;1792.00;;;;;;4917636;29;20028;-73
2021/01/25 00:26:12;;;;;;;5.70;3.58;;;179.90;1817.60;;;;;;4917715;29;20039;-73
2021/01/25 00:28:38;;;;;;;5.68;3.17;;;179.80;1817.60;;;;;;4917832;29;20028;-72
2021/01/25 00:31:03;;;;;;;5.93;3.03;;;179.60;1868.80;;;;;;4917684;29;20028;-72
2021/01/25 00:33:29;;;;;;;7.75;4.13;;;179.60;1868.80;;;;;;4917618;29;20120;-73
2021/01/25 00:35:54;;;;;;;6.18;3.13;;;179.50;1868.80;;;;;;4917524;29;20387;-70
2021/01/25 00:38:20;;;;;;;4.13;2.90;;;179.40;1894.40;;;;;;4917682;29;20183;-69
2021/01/25 00:40:46;;;;;;;5.60;3.90;;;179.50;1868.80;;;;;;4917605;29;20039;-71
2021/01/25 00:43:13;;;;;;;5.45;3.40;;;154.50;1894.40;;;;;;4917213;29;20056;-72
2021/01/25 00:45:38;;;;;;;6.07;3.65;;;179.40;1868.80;;;;;;4917495;29;20028;-73
2021/01/25 00:48:04;;;;;;;6.07;3.78;;;179.40;1868.80;;;;;;4917386;29;20031;-72
2021/01/25 00:50:30;;;;;;;8.75;4.25;;;179.30;1868.80;;;;;;4917337;29;20496;-72
2021/01/25 00:52:56;;;;;;;6.30;3.30;;;179.30;1843.20;;;;;;4917275;29;20924;-72
2021/01/25 00:55:21;;;;;;;4.55;3.08;;;179.20;1868.80;;;;;;4917308;29;20052;-72
2021/01/25 00:57:47;;;;;;;7.90;3.80;;;154.40;1894.40;;;;;;4916841;29;20047;-70
2021/01/25 01:00:14;;;;;;;6.30;3.53;;;154.50;1868.80;;;;;;4917250;29;20475;-73
2021/01/25 01:02:40;;;;;;;6.30;3.30;;;154.30;1894.40;;;;;;4916900;29;20535;-73
2021/01/25 01:05:07;;;;;;;5.47;3.22;;;154.30;1843.20;;;;;;4917276;29;20043;-72
2021/01/25 01:07:33;;;;;;;6.38;3.65;;;154.30;1843.20;;;;;;4916828;29;20510;-69
2021/01/25 01:09:59;;;;;;;6.25;3.30;;;154.20;1843.20;;;;;;4915694;29;20028;-72
2021/01/25 01:12:25;;;;;;;5.00;2.92;;;154.10;1843.20;;;;;;4917142;29;20212;-70
2021/01/25 01:14:51;;;;;;;6.15;3.50;;;154.30;1868.80;;;;;;4916741;29;20020;-72
2021/01/25 01:17:17;;;;;;;5.32;3.13;;;154.20;1843.20;;;;;;4916326;29;20055;-70
2021/01/25 01:19:42;;;;;;;5.40;2.95;;;154.20;1817.60;;;;;;4916695;29;20055;-72
2021/01/25 01:22:08;;;;;;;4.43;2.78;;;154.10;1868.80;;;;;;4916841;29;20091;-69
2021/01/25 01:24:34;;;;;;;7.28;3.60;;;154.40;1817.60;;;;;;4916621;29;20478;-73
2021/01/25 01:26:59;;;;;;;4.63;3.05;;;179.20;1817.60;;;;;;4916969;29;20043;-70
2021/01/25 01:29:25;;;;;;;4.10;2.72;;;154.50;1843.20;;;;;;4916601;29;20028;-73
2021/01/25 01:31:51;;;;;;;6.82;2.90;;;154.50;1843.20;;;;;;4916868;29;20146;-70
2021/01/25 01:34:17;;;;;;;4.65;2.60;;;179.20;1843.20;;;;;;4916598;29;20059;-70
2021/01/25 01:36:42;;;;;;;5.05;2.47;;;154.20;1843.20;;;;;;4916646;29;20115;-70
2021/01/25 01:39:08;;;;;;;4.97;2.80;;;154.40;1843.20;;;;;;4916846;29;20028;-70
2021/01/25 01:41:37;;;;;;;4.05;2.60;;;154.50;1843.20;;;;;;4916321;29;20036;-73
2021/01/25 01:44:04;;;;;;;3.90;2.60;;;154.50;1792.00;;;;;;4916820;29;20024;-72
2021/01/25 01:46:31;;;;;;;6.05;3.53;;;154.50;1792.00;;;;;;4916522;29;20382;-72
2021/01/25 01:48:58;;;;;;;7.60;4.22;;;179.20;1817.60;;;;;;4916855;29;20020;-70
2021/01/25 01:51:24;;;;;;;5.20;3.53;;;179.20;1817.60;;;;;;4916316;29;20116;-73
2021/01/25 01:53:49;;;;;;;7.97;3.95;;;154.40;1817.60;;;;;;4916452;29;20059;-72
2021/01/25 01:56:16;;;;;;;4.07;2.58;;;179.20;1817.60;;;;;;4916279;29;20067;-73
2021/01/25 01:58:41;;;;;;;4.97;2.92;;;179.20;1792.00;;;;;;4916551;29;20024;-72
2021/01/25 02:01:07;;;;;;;6.30;3.05;;;154.40;1817.60;;;;;;4916158;29;20487;-72
2021/01/25 02:03:33;;;;;;;9.27;4.03;;;154.00;1843.20;;;;;;4916186;29;20031;-71
2021/01/25 02:06:00;;;;;;;4.78;3.10;;;154.20;1843.20;;;;;;4916673;29;20399;-73
2021/01/25 02:08:26;;;;;;;5.75;3.42;;;154.20;1817.60;;;;;;4916293;29;20029;-71
2021/01/25 02:10:54;;;;;;;5.38;3.40;;;154.30;1792.00;;;;;;4916481;29;20075;-72
2021/01/25 02:13:21;;;;;;;7.05;3.42;;;154.40;1792.00;;;;;;4916270;29;20032;-73
2021/01/25 02:15:47;;;;;;;6.20;3.08;;;154.20;1817.60;;;;;;4916360;29;20047;-72
2021/01/25 02:18:12;;;;;;;4.53;2.92;;;154.40;1766.40;;;;;;4916253;29;20479;-70
2021/01/25 02:20:43;;;;;;;7.90;3.78;;;154.40;1766.40;;;;;;4916210;29;20032;-71
2021/01/25 02:23:27;;;;;;;7.05;3.45;;;154.50;1792.00;;;;;;4916252;29;20431;-72
2021/01/25 02:26:16;;;;;;;5.93;3.20;;;179.30;1740.80;;;;;;4916006;29;20032;-70
2021/01/25 02:28:42;;;;;;;4.70;3.03;;;154.10;1740.80;;;;;;4917582;29;20031;-73
2021/01/25 02:31:10;;;;;;;5.05;3.15;;;154.20;1740.80;;;;;;4919506;29;20479;-72
2021/01/25 02:33:46;;;;;;;5.97;3.65;;;154.20;1715.20;;;;;;4919769;29;20046;-72
2021/01/25 02:36:13;;;;;;;5.43;3.78;;;154.40;1740.80;;;;;;4920078;29;20044;-70
2021/01/25 02:38:42;;;;;;;4.75;3.45;;;154.40;1715.20;;;;;;4918435;29;20574;-70
2021/01/25 02:41:10;;;;;;;6.20;3.65;;;154.30;1715.20;;;;;;4919654;29;20035;-72
2021/01/25 02:43:37;;;;;;;7.07;4.90;;;154.30;1740.80;;;;;;4919572;29;20024;-70
2021/01/25 02:46:03;;;;;;;7.32;4.07;;;154.50;1715.20;;;;;;4919501;29;20029;-73
2021/01/25 02:48:29;;;;;;;6.03;4.22;;;154.40;1715.20;;;;;;4919668;29;20032;-70
2021/01/25 02:50:55;;;;;;;6.70;3.88;;;154.50;1689.60;;;;;;4919301;29;20020;-72
2021/01/25 02:53:20;;;;;;;8.43;4.68;;;179.30;1689.60;;;;;;4919477;29;20035;-70
2021/01/25 02:55:47;;;;;;;6.35;4.25;;;179.40;1664.00;;;;;;4919231;29;20052;-69
2021/01/25 02:58:14;;;;;;;6.50;4.45;;;154.50;1664.00;;;;;;4918215;29;20372;-72
2021/01/25 03:00:40;;;;;;;6.78;4.68;;;179.30;1689.60;;;;;;4919191;29;20439;-72
2021/01/25 03:03:07;;;;;;;6.78;4.13;;;179.50;1638.40;;;;;;4919478;29;20032;-70
2021/01/25 03:05:33;;;;;;;7.22;4.63;;;179.30;1638.40;;;;;;4919039;29;20032;-71
2021/01/25 03:07:59;;;;;;;6.38;3.88;;;179.30;1689.60;;;;;;4919358;29;20080;-70
2021/01/25 03:10:25;;;;;;;5.68;3.90;;;179.30;1689.60;;;;;;4919119;29;20032;-72
2021/01/25 03:12:52;;;;;;;4.72;2.80;;;179.40;1689.60;;;;;;4918930;29;20032;-71
2021/01/25 03:15:19;;;;;;;4.63;3.10;;;179.20;1689.60;;;;;;4919315;29;20020;-72
2021/01/25 03:17:45;;;;;;;4.28;3.20;;;154.40;1715.20;;;;;;4918952;29;20028;-72
2021/01/25 03:20:11;;;;;;;5.72;3.78;;;154.50;1740.80;;;;;;4918999;29;20035;-73
2021/01/25 03:22:36;;;;;;;4.30;3.05;;;154.50;1740.80;;;;;;4918919;29;20111;-70
2021/01/25 03:25:03;;;;;;;6.55;3.50;;;154.50;1740.80;;;;;;4919102;29;20031;-72
2021/01/25 03:27:29;;;;;;;7.25;4.30;;;154.50;1715.20;;;;;;4917656;29;20063;-70
2021/01/25 03:29:55;;;;;;;6.35;4.18;;;179.50;1689.60;;;;;;4918963;29;20060;-72
2021/01/25 03:32:20;;;;;;;7.35;4.80;;;154.50;1740.80;;;;;;4918721;29;20028;-73
2021/01/25 03:34:46;;;;;;;9.43;6.30;;;154.30;1766.40;;;;;;4918895;29;20028;-70
2021/01/25 03:37:12;;;;;;;7.25;5.03;;;154.20;1792.00;;;;;;4918579;29;20071;-72
2021/01/25 03:39:37;;;;;;;11.27;6.20;;;154.20;1792.00;;;;;;4917648;29;20028;-72
2021/01/25 03:42:04;;;;;;;10.00;5.68;;;154.50;1792.00;;;;;;4918625;29;20044;-73
2021/01/25 03:44:30;;;;;;;6.35;4.95;;;179.40;1740.80;;;;;;4918464;29;20475;-69
2021/01/25 03:46:55;;;;;;;5.00;3.85;;;179.60;1715.20;;;;;;4918595;29;20038;-71
2021/01/25 03:49:21;;;;;;;10.18;5.93;;;179.70;1689.60;;;;;;4918380;29;20475;-69
2021/01/25 03:51:47;;;;;;;5.22;3.50;;;179.50;1715.20;;;;;;4918596;29;20028;-72
2021/01/25 03:54:13;;;;;;;5.38;3.50;;;179.70;1689.60;;;;;;4918325;29;20630;-70
2021/01/25 03:56:40;;;;;;;9.10;5.60;;;179.80;1664.00;;;;;;4918275;29;20115;-70
2021/01/25 03:59:06;;;;;;;8.32;5.20;;;179.90;1664.00;;;;;;4918378;29;20052;-70
2021/01/25 04:01:32;;;;;;;8.15;4.70;;;180.10;1664.00;;;;;;4918361;29;20074;-70
2021/01/25 04:03:57;;;;;;;8.05;5.05;;;204.80;1664.00;;;;;;4918148;29;20047;-70
2021/01/25 04:06:23;;;;;;;12.40;7.28;;;180.10;1664.00;;;;;;4918049;29;20039;-72
2021/01/25 04:08:49;;;;;;;14.85;7.95;;;204.80;1638.40;;;;;;4918237;29;20078;-73
2021/01/25 04:11:16;;;;;;;4.75;3.38;;;180.10;1638.40;;;;;;4917975;29;20039;-72
2021/01/25 04:13:42;;;;;;;12.00;7.63;;;179.80;1638.40;;;;;;4918114;29;20020;-72
2021/01/25 04:16:08;;;;;;;13.93;7.88;;;180.00;1664.00;;;;;;4917960;29;20028;-72
2021/01/25 04:18:34;;;;;;;13.95;8.68;;;180.10;1664.00;;;;;;4917981;29;20115;-70
2021/01/25 04:21:00;;;;;;;9.02;6.13;;;180.00;1664.00;;;;;;4917535;29;20067;-72
2021/01/25 04:23:26;;;;;;;12.15;7.97;;;179.90;1638.40;;;;;;4917979;29;20028;-72
2021/01/25 04:25:51;;;;;;;10.07;6.50;;;180.10;1638.40;;;;;;4917908;29;20360;-72
2021/01/25 04:28:17;;;;;;;12.48;8.00;;;180.00;1612.80;;;;;;4918000;29;20107;-70
2021/01/25 04:30:43;;;;;;;19.45;10.13;;;180.10;1612.80;;;;;;4917518;29;20051;-72
2021/01/25 04:33:08;;;;;;;20.40;10.90;;;179.90;1638.40;;;;;;4917635;29;20103;-72
2021/01/25 04:35:39;;;;;;;12.70;8.15;;;179.90;1638.40;;;;;;4918130;29;20032;-72
2021/01/25 04:38:06;;;;;;;9.50;6.53;;;180.10;1612.80;;;;;;4917512;29;20483;-72
2021/01/25 04:40:31;;;;;;;12.30;6.55;;;179.80;1638.40;;;;;;4917531;29;20111;-72
2021/01/25 04:42:59;;;;;;;8.52;5.45;;;180.00;1612.80;;;;;;4917393;29;20523;-72
2021/01/25 04:45:26;;;;;;;7.97;5.18;;;179.80;1638.40;;;;;;4917614;29;20081;-72
2021/01/25 04:47:54;;;;;;;9.02;5.78;;;179.80;1612.80;;;;;;4917380;29;20059;-72
2021/01/25 04:50:20;;;;;;;14.30;7.97;;;180.10;1587.20;;;;;;4917435;29;20059;-72
2021/01/25 04:52:47;;;;;;;15.73;8.73;;;205.00;1561.60;;;;;;4917137;29;20032;-70
2021/01/25 04:55:15;;;;;;;18.42;9.98;;;179.90;1612.80;;;;;;4917138;29;20123;-71
2021/01/25 04:57:43;;;;;;;16.50;9.48;;;180.00;1612.80;;;;;;4917385;29;20038;-72
2021/01/25 05:00:10;;;;;;;21.45;12.50;;;179.50;1612.80;;;;;;4917161;29;20016;-70
2021/01/25 05:02:37;;;;;;;11.25;6.72;;;179.80;1612.80;;;;;;4917294;29;20038;-72
2021/01/25 05:05:07;;;;;;;11.43;6.13;;;179.40;1612.80;;;;;;4917305;29;20039;-71
2021/01/25 05:07:33;;;;;;;12.85;7.68;;;179.50;1612.80;;;;;;4917274;29;20027;-72
2021/01/25 05:09:59;;;;;;;11.23;7.50;;;179.50;1638.40;;;;;;4916836;29;20387;-73
2021/01/25 05:12:25;;;;;;;12.32;7.65;;;179.80;1612.80;;;;;;4917237;29;20066;-72
2021/01/25 05:14:50;;;;;;;12.65;7.22;;;180.00;1561.60;;;;;;4916857;29;20056;-70
2021/01/25 05:17:16;;;;;;;9.93;6.38;;;180.10;1561.60;;;;;;4916892;29;20032;-69
2021/01/25 05:19:46;;;;;;;13.40;7.68;;;205.00;1510.40;;;;;;4916930;29;20024;-73
2021/01/25 05:22:20;;;;;;;17.88;9.20;;;180.00;1536.00;;;;;;4916636;29;20128;-70
2021/01/25 05:24:49;;;;;;;14.23;7.60;;;180.10;1536.00;;;;;;4916905;29;20023;-72
2021/01/25 05:27:28;;;;;;;15.43;8.88;;;179.80;1561.60;;;;;;4916741;29;20024;-72
2021/01/25 05:30:05;;;;;;;21.80;12.68;;;204.90;1536.00;;;;;;4916517;29;20364;-70
2021/01/25 05:32:30;;;;;;;15.38;9.38;;;204.90;1536.00;;;;;;4916846;29;20024;-71
2021/01/25 05:35:05;;;;;;;12.50;8.10;;;204.80;1536.00;;;;;;4916512;29;20124;-73
2021/01/25 05:37:35;;;;;;;13.18;7.80;;;180.00;1561.60;;;;;;4916818;29;20020;-72
2021/01/25 05:40:01;;;;;;;12.80;7.10;;;179.90;1561.60;;;;;;4916482;29;20039;-72
2021/01/25 05:42:34;;;;;;;16.52;9.30;;;180.00;1536.00;;;;;;4916344;29;20399;-72
2021/01/25 05:45:07;;;;;;;16.27;10.23;;;180.00;1536.00;;;;;;4916976;29;20372;-72
2021/01/25 05:48:00;;;;;;;19.98;11.30;;;179.80;1587.20;;;;;;4916587;29;20032;-73
2021/01/25 05:50:34;;;;;;;20.67;12.13;;;179.80;1587.20;;;;;;4916211;29;20036;-70
2021/01/25 05:53:03;;;;;;;20.05;12.07;;;204.80;1561.60;;;;;;4916791;29;20028;-70
2021/01/25 05:55:29;;;;;;;22.13;13.32;;;180.10;1510.40;;;;;;4916366;29;20506;-72
2021/01/25 05:57:54;;;;;;;58.33;29.48;;;205.00;1510.40;;;;;;4916455;29;20032;-71
2021/01/25 06:00:21;;;;;;;16.80;10.30;;;205.10;1510.40;;;;;;4916054;29;20020;-72
2021/01/25 06:02:49;;;;;;;24.23;12.63;;;205.10;1484.80;;;;;;4916877;29;20111;-70
2021/01/25 06:05:30;;;;;;;23.98;15.43;;;180.10;1510.40;;;;;;4920329;29;20479;-72
2021/01/25 06:08:13;;;;;;;23.63;14.07;;;205.00;1484.80;;;;;;4920172;29;20436;-72
2021/01/25 06:10:46;;;;;;;23.08;13.82;;;204.80;1484.80;;;;;;4920211;29;20032;-70
2021/01/25 06:13:15;;;;;;;23.17;14.18;;;179.90;1561.60;;;;;;4920277;29;20024;-71
2021/01/25 06:15:42;;;;;;;25.25;14.57;;;179.70;1587.20;;;;;;4920062;29;20028;-72
2021/01/25 06:18:07;;;;;;;24.98;16.65;;;180.10;1510.40;;;;;;4918806;29;20071;-70
2021/01/25 06:20:35;;;;;;;28.08;18.55;;;204.90;1484.80;;;;;;4924150;29;20052;-71
2021/01/25 06:23:02;;;;;;;15.93;10.57;;;204.80;1510.40;;;;;;4919941;29;20553;-72
2021/01/25 06:25:29;;;;;;;17.30;11.73;;;180.00;1484.80;;;;;;4918847;29;20390;-68
2021/01/25 06:27:56;;;;;;;25.10;13.75;;;179.90;1536.00;;;;;;4919552;29;20020;-70
2021/01/25 06:30:24;;;;;;;34.97;21.70;;;180.00;1510.40;;;;;;4919438;29;20115;-74
2021/01/25 06:32:51;;;;;;;18.08;11.15;;;179.80;1536.00;;;;;;4919249;29;20016;-72
2021/01/25 06:35:17;;;;;;;26.95;16.58;;;179.50;1587.20;;;;;;4919373;29;20436;-74
2021/01/25 06:37:50;;;;;;;47.35;29.25;;;179.60;1612.80;;;;;;4919312;29;20020;-75
2021/01/25 06:40:23;;;;;;;27.50;16.55;;;179.40;1587.20;;;;;;4919658;29;20487;-76
2021/01/25 06:42:49;;;;;;;26.55;16.50;;;179.60;1587.20;;;;;;4919358;29;20036;-76
2021/01/25 06:45:15;;;;;;;20.10;14.38;;;179.80;1612.80;;;;;;4919796;29;20034;-70
2021/01/25 06:47:41;;;;;;;15.20;9.80;;;180.00;1510.40;;;;;;4919497;29;20114;-78
2021/01/25 06:50:08;;;;;;;15.07;10.13;;;179.60;1561.60;;;;;;4919214;29;20035;-70
2021/01/25 06:52:38;;;;;;;19.73;12.95;;;179.70;1536.00;;;;;;4919706;29;20024;-70
2021/01/25 06:55:05;;;;;;;20.77;13.55;;;179.80;1484.80;;;;;;4919006;29;20048;-72
2021/01/25 06:57:36;;;;;;;17.85;12.40;;;179.80;1484.80;;;;;;4919514;29;20145;-76
2021/01/25 07:00:14;;;;;;;22.10;13.68;;;179.80;1510.40;;;;;;4919462;29;20113;-76
2021/01/25 07:02:59;;;;;;;27.80;17.02;;;179.70;1536.00;;;;;;4919398;29;20059;-70
2021/01/25 07:05:26;;;;;;;25.52;17.90;;;179.70;1536.00;;;;;;4919116;29;20107;-72
2021/01/25 07:07:51;;;;;;;29.25;18.10;;;179.80;1510.40;;;;;;4919219;29;20028;-76
2021/01/25 07:10:20;;;;;;;32.78;21.30;;;179.80;1510.40;;;;;;4919385;29;20032;-76
2021/01/25 07:12:45;;;;;;;33.08;20.15;;;179.80;1510.40;;;;;;4919052;29;20030;-77
2021/01/25 07:15:12;;;;;;;29.02;18.85;;;180.00;1510.40;;;;;;4918102;29;20028;-77
2021/01/25 07:17:38;;;;;;;29.92;20.80;;;179.90;1510.40;;;;;;4918976;29;20016;-69
2021/01/25 07:20:05;;;;;;;27.95;17.92;;;179.70;1536.00;;;;;;4918737;29;20156;-71
2021/01/25 07:22:34;;;;;;;19.52;12.27;;;180.00;1510.40;;;;;;4918302;29;20036;-76
2021/01/25 07:25:00;;;;;;;24.50;14.75;;;179.80;1510.40;;;;;;4918458;29;20031;-71
2021/01/25 07:27:35;;;;;;;35.95;23.50;;;204.90;1484.80;;;;;;4918978;29;20127;-73
2021/01/25 07:30:01;;;;;;;30.60;20.60;;;205.10;1433.60;;;;;;4918741;29;20020;-73
2021/01/25 07:32:27;;;;;;;36.67;23.10;;;205.30;1408.00;;;;;;4918851;29;20028;-72
2021/01/25 07:34:56;;;;;;;76.30;48.25;;;205.50;1382.40;;;;;;4918441;29;20032;-72
2021/01/25 07:37:21;;;;;;;64.35;41.28;;;205.70;1356.80;;;;;;4918386;29;20020;-72
2021/01/25 07:39:47;;;;;;;77.07;44.70;;;205.70;1382.40;;;;;;4918682;29;20028;-71
2021/01/25 07:42:13;;;;;;;23.63;13.13;;;230.60;1356.80;;;;;;4918218;29;20040;-72
2021/01/25 07:44:39;;;;;;;23.48;15.77;;;230.60;1331.20;;;;;;4918642;29;20028;-72
2021/01/25 07:47:04;;;;;;;52.00;31.10;;;205.70;1356.80;;;;;;4918436;29;20029;-72
2021/01/25 07:49:30;;;;;;;25.45;16.27;;;205.70;1331.20;;;;;;4918504;29;20474;-69
2021/01/25 07:51:56;;;;;;;33.60;20.83;;;205.70;1331.20;;;;;;4918325;29;20190;-71
2021/01/25 07:54:24;;;;;;;21.35;13.95;;;230.80;1305.60;;;;;;4918063;29;20157;-72
2021/01/25 07:56:49;;;;;;;22.55;15.02;;;230.80;1254.40;;;;;;4918031;29;20526;-70
2021/01/25 07:59:18;;;;;;;21.92;16.48;;;231.30;1280.00;;;;;;4918441;29;20016;-71
2021/01/25 08:01:57;;;;;;;21.23;14.18;;;256.00;1254.40;;;;;;4916801;29;20498;-71
2021/01/25 08:04:28;;;;;;;16.88;10.00;;;231.10;1203.20;;;;;;4917889;29;20035;-71
2021/01/25 08:06:57;;;;;;;11.52;6.53;;;230.90;1228.80;;;;;;4918195;29;20028;-71
2021/01/25 08:09:24;;;;;;;10.55;7.45;;;230.90;1228.80;;;;;;4917078;29;20099;-74
2021/01/25 08:11:50;;;;;;;8.57;6.50;;;231.20;1228.80;;;;;;4918223;29;20163;-74
2021/01/25 08:14:39;;;;;;;17.50;10.35;;;231.30;1203.20;;;;;;4917772;29;20558;-72
2021/01/25 08:17:13;;;;;;;14.32;8.88;;;256.10;1152.00;;;;;;4917858;29;20027;-75
2021/01/25 08:19:45;;;;;;;13.00;9.23;;;231.30;1152.00;;;;;;4917925;29;20091;-70
2021/01/25 08:22:22;;;;;;;9.57;5.70;;;256.00;1203.20;;;;;;4917491;29;20063;-75
2021/01/25 08:25:00;;;;;;;12.02;9.80;;;256.10;1126.40;;;;;;4917525;29;20024;-75
2021/01/25 08:27:29;;;;;;;44.30;29.77;;;256.30;1100.80;;;;;;4917479;29;20416;-75
2021/01/25 08:30:03;;;;;;;136.23;96.40;;;256.10;1126.40;;;;;;4916362;29;20024;-74
2021/01/25 08:32:51;;;;;;;15.82;12.25;;;256.70;1126.40;;;;;;4917324;29;20542;-74
2021/01/25 08:35:54;;;;;;;18.70;14.73;;;256.50;1075.20;;;;;;4917333;29;20024;-70
2021/01/25 08:38:28;;;;;;;19.02;13.15;;;256.80;1100.80;;;;;;4917537;29;20028;-70
2021/01/25 08:40:55;;;;;;;13.25;7.68;;;282.00;1075.20;;;;;;4917298;29;20025;-73
2021/01/25 08:43:26;;;;;;;13.60;8.68;;;281.70;1049.60;;;;;;4917332;29;20025;-70
2021/01/25 08:45:54;;;;;;;;;;;256.80;1049.60;;;;;;4917392;29;20490;-73
2021/01/25 08:48:33;;;;;;;25.55;16.63;;;256.70;1049.60;;;;;;4915674;29;19911;-74
2021/01/25 08:51:25;;;;;;;12.20;6.65;;;256.70;1075.20;;;;;;4917199;29;20107;-74
2021/01/25 08:54:00;;;;;;;10.00;6.30;;;256.80;1024.00;;;;;;4917350;29;20031;-74
2021/01/25 08:56:34;;;;;;;6.70;5.15;;;281.70;1049.60;;;;;;4916877;29;20127;-71
2021/01/25 08:59:08;;;;;;;6.97;4.70;;;281.60;1049.60;;;;;;4917127;29;20028;-72
2021/01/25 09:01:34;;;;;;;9.13;6.30;;;256.90;1024.00;;;;;;4916996;29;20039;-72
2021/01/25 09:04:00;;;;;;;11.48;7.68;;;281.80;1049.60;;;;;;4916918;29;20027;-72
2021/01/25 09:06:26;;;;;;;7.13;4.90;;;281.80;1024.00;;;;;;4917146;29;20058;-72
2021/01/25 09:08:52;;;;;;;13.27;10.75;;;281.70;1024.00;;;;;;4916912;29;20511;-72
2021/01/25 09:11:18;;;;;;;11.57;7.88;;;282.10;1024.00;;;;;;4917001;29;20115;-71
2021/01/25 09:13:43;;;;;;;9.80;8.20;;;282.50;972.80;;;;;;4916797;29;20028;-72
2021/01/25 09:16:09;;;;;;;9.73;8.15;;;307.90;947.20;;;;;;4916916;29;20063;-72
2021/01/25 09:18:35;;;;;;;17.88;11.48;;;333.40;896.00;;;;;;4916661;29;20032;-72
2021/01/25 09:21:00;;;;;;;18.63;12.32;;;358.40;870.40;;;;;;4916819;29;20044;-72
2021/01/25 09:23:26;;;;;;;13.88;11.27;;;384.60;768.00;;;;;;4916599;29;20028;-72
2021/01/25 09:25:52;;;;;;;21.73;19.50;;;486.90;614.40;;;;;;4916560;29;20431;-71
2021/01/25 09:28:18;;;;;;;10.32;8.32;;;563.20;537.60;;;;;;4916277;29;20032;-68
2021/01/25 09:30:43;;;;;;;14.40;9.93;;;563.70;512.00;;;;;;4916533;29;20028;-73
2021/01/25 09:33:09;;;;;;;19.08;13.30;;;563.20;537.60;;;;;;4916831;29;20031;-72
2021/01/25 09:35:35;;;;;;;38.22;13.63;;;589.70;460.80;;;;;;4916385;29;20020;-74
2021/01/25 09:38:01;;;;;;;23.10;17.60;;;614.50;460.80;;;;;;4915728;29;20024;-72
2021/01/25 09:40:27;;;;;;;8.80;7.57;;;563.20;537.60;;;;;;4916346;29;20016;-73
2021/01/25 09:42:53;;;;;;;31.88;25.45;;;563.50;512.00;;;;;;4916383;29;20190;-72
2021/01/25 09:45:20;;;;;;;17.55;12.02;;;640.00;384.00;;;;;;4916336;29;20147;-73
2021/01/25 09:47:46;;;;;;;9.80;8.13;;;691.20;358.40;;;;;;4916441;29;20028;-70
2021/01/25 09:50:15;;;;;;;27.33;23.67;;;691.40;358.40;;;;;;4916220;29;20035;-69
2021/01/25 09:52:42;;;;;;;16.00;7.82;;;692.00;358.40;;;;;;4916331;29;20028;-73
2021/01/25 09:55:08;;;;;;;14.43;7.72;;;691.40;384.00;;;;;;4915920;29;20099;-71
2021/01/25 09:57:34;;;;;;;10.73;6.93;;;;;;;;;;4916112;29;20040;-76
2021/01/25 10:00:00;;;;;;;9.80;8.90;;;640.60;384.00;;;;;;4916246;29;20032;-73
2021/01/25 10:02:26;;;;;;;7.25;6.55;;;589.10;486.40;;;;;;4916094;29;20050;-73
2021/01/25 10:04:51;;;;;;;14.93;13.43;;;666.30;358.40;;;;;;4916474;29;20035;-73
2021/01/25 10:07:17;;;;;;;8.80;6.82;;;717.10;307.20;;;;;;4916069;29;20028;-69
2021/01/25 10:09:42;;;;;;;28.58;25.45;;;768.30;256.00;;;;;;4916338;29;20029;-75
2021/01/25 10:12:08;;;;;;;25.52;22.55;;;768.10;256.00;;;;;;4916277;29;20060;-70
2021/01/25 10:14:34;;;;;;;20.40;6.72;;;717.70;307.20;;;;;;4916059;29;20124;-70
2021/01/25 10:16:59;;;;;;;6.75;5.57;;;665.70;435.20;;;;;;4916038;29;20431;-75
2021/01/25 10:19:25;;;;;;;7.75;7.05;;;640.50;384.00;;;;;;4916291;29;20051;-71
2021/01/25 10:21:51;;;;;;;38.15;22.17;;;640.60;384.00;;;;;;4915812;29;20134;-72
2021/01/25 10:24:17;;;;;;;20.55;11.90;;;666.00;384.00;;;;;;4915710;29;20029;-72
2021/01/25 10:26:42;;;;;;;14.68;10.07;;;665.90;384.00;;;;;;4916043;29;20099;-71
2021/01/25 10:29:08;;;;;;;39.25;19.77;;;717.00;332.80;;;;;;4915815;29;20032;-70
2021/01/25 10:31:34;;;;;;;39.20;28.70;;;717.50;307.20;;;;;;4916187;29;20032;-72
2021/01/25 10:34:00;;;;;;;8.13;6.78;;;717.00;307.20;;;;;;4915896;29;20080;-72
2021/01/25 10:36:25;;;;;;;4.82;3.10;;;717.20;307.20;;;;;;4916199;29;20024;-72
2021/01/25 10:38:51;;;;;;;7.60;5.90;;;717.70;281.60;;;;;;4915878;29;20364;-75
2021/01/25 10:41:17;;;;;;;9.38;8.45;;;717.70;281.60;;;;;;4916073;29;20036;-70
2021/01/25 10:43:43;;;;;;;14.13;7.25;;;640.60;358.40;;;;;;4915640;29;20336;-71
2021/01/25 10:46:10;;;;;;;8.23;6.05;;;640.90;409.60;;;;;;4898811;29;20028;-69
2021/01/25 10:48:36;;;;;;;13.60;9.73;;;640.50;358.40;;;;;;4915766;29;20025;-71
2021/01/25 10:51:01;;;;;;;72.70;20.15;;;640.60;332.80;;;;;;4919269;29;20016;-70
2021/01/25 10:53:27;;;;;;;22.10;14.20;;;665.90;358.40;;;;;;4918164;29;20446;-71
2021/01/25 10:55:53;;;;;;;17.20;7.80;;;640.30;384.00;;;;;;4918876;29;20044;-71
2021/01/25 10:58:18;;;;;;;12.48;7.15;;;640.00;384.00;;;;;;4919491;29;20041;-69
2021/01/25 11:00:44;;;;;;;50.38;23.00;;;615.00;384.00;;;;;;4919034;29;20063;-69
2021/01/25 11:03:10;;;;;;;54.67;25.35;;;614.50;460.80;;;;;;4919259;29;20029;-69
2021/01/25 11:05:36;;;;;;;132.90;115.72;;;589.40;460.80;;;;;;4919016;29;20107;-71
2021/01/25 11:08:03;;;;;;;10.63;6.57;;;589.70;435.20;;;;;;4919192;29;20492;-72
2021/01/25 11:10:29;;;;;;;36.67;11.52;;;563.90;460.80;;;;;;4918853;29;20016;-70
2021/01/25 11:12:55;;;;;;;30.70;24.75;;;537.80;512.00;;;;;;4919364;29;20391;-72
2021/01/25 11:15:22;;;;;;;10.77;8.40;;;537.80;537.60;;;;;;4918621;29;20056;-69
2021/01/25 11:17:48;;;;;;;26.48;12.48;;;537.70;512.00;;;;;;4918789;29;20024;-70
2021/01/25 11:20:15;;;;;;;45.55;16.60;;;512.70;512.00;;;;;;4918813;29;20079;-72
2021/01/25 11:22:41;;;;;;;45.88;11.15;;;512.30;537.60;;;;;;4918235;29;20036;-70
2021/01/25 11:25:07;;;;;;;31.90;10.98;;;487.10;563.20;;;;;;4917367;29;20032;-71
2021/01/25 11:27:33;;;;;;;23.90;10.45;;;486.80;563.20;;;;;;4918673;29;20083;-71
2021/01/25 11:29:59;;;;;;;35.03;17.10;;;486.50;588.80;;;;;;4918709;29;20020;-68
2021/01/25 11:32:25;;;;;;;32.55;15.65;;;461.70;588.80;;;;;;4918465;29;20336;-69
2021/01/25 11:34:51;;;;;;;24.52;11.50;;;461.50;588.80;;;;;;4918794;29;20024;-69
2021/01/25 11:37:18;;;;;;;63.90;18.88;;;461.30;588.80;;;;;;4918194;29;20027;-70
2021/01/25 11:39:44;;;;;;;63.13;17.20;;;461.60;588.80;;;;;;4918723;29;20030;-70
2021/01/25 11:42:10;;;;;;;40.47;16.42;;;461.50;614.40;;;;;;4918263;29;20036;-70
2021/01/25 11:44:37;;;;;;;38.67;15.25;;;461.40;614.40;;;;;;4917106;29;20032;-70
2021/01/25 11:47:03;;;;;;;29.50;13.63;;;461.40;614.40;;;;;;4918494;29;20491;-69
2021/01/25 11:49:29;;;;;;;46.95;16.00;;;460.80;640.00;;;;;;4918510;29;20163;-72
2021/01/25 11:51:55;;;;;;;40.53;13.57;;;436.10;614.40;;;;;;4918440;29;20488;-71
2021/01/25 11:54:20;;;;;;;19.23;9.63;;;435.60;640.00;;;;;;4918130;29;20067;-71
2021/01/25 11:56:46;;;;;;;19.13;10.52;;;435.80;640.00;;;;;;4918178;29;20103;-71
2021/01/25 11:59:13;;;;;;;38.67;17.38;;;435.40;665.60;;;;;;4917960;29;20024;-70
2021/01/25 12:01:39;;;;;;;42.67;15.23;;;410.50;691.20;;;;;;4917173;29;20039;-71
2021/01/25 12:04:05;;;;;;;27.15;16.30;;;435.20;691.20;;;;;;4918214;29;20031;-71
2021/01/25 12:06:32;;;;;;;38.95;13.20;;;410.20;691.20;;;;;;4918134;29;20079;-73
2021/01/25 12:08:58;;;;;;;49.42;20.55;;;409.80;742.40;;;;;;4917877;29;20083;-72
2021/01/25 12:11:23;;;;;;;38.92;22.52;;;384.90;716.80;;;;;;4917640;29;20424;-73
2021/01/25 12:13:49;;;;;;;40.50;16.23;;;384.90;716.80;;;;;;4916777;29;20028;-72